Terminal Aerodrome Forecast
Issued by NWS Wilmington, OH

Home | Current Version | Previous Version | Text Only | Print | Product List | Glossary On
Versions: 1 2 3 4 5 6 7 8 9 10 11 12 13 14 15 16 17 18 19 20 21 22 23 24 25 26 27 28 29 30 31 32 33 34 35 36 37 38 39 40 41 42 43 44 45 46 47 48
000
FTUS41 KILN 191122
TAFDAY
TAF
KDAY 191122Z 1912/2012 00000KT 3SM BR SCT003 BKN060
      TEMPO 1912/1914 1SM BR BKN002
     FM191400 19004KT P6SM BKN020
     FM191700 21005KT P6SM VCSH BKN030
     FM192000 22006KT P6SM -SHRA VCTS BKN040CB
     FM200800 18007KT P6SM -SHRA OVC030=

USA.gov is the U.S. government's official web portal to all federal, state and local government web resources and services.